sensor_id;sensor_type;location;lat;lon;timestamp;P1;durP1;ratioP1;P2;durP2;ratioP2
11998;SDS011;40817;51.520;9.954;2023-06-26T00:02:08;6.93;;;5.25;;
11998;SDS011;40817;51.520;9.954;2023-06-26T00:04:36;7.00;;;5.68;;
11998;SDS011;40817;51.520;9.954;2023-06-26T00:07:04;7.65;;;5.88;;
11998;SDS011;40817;51.520;9.954;2023-06-26T00:09:32;7.30;;;5.45;;
11998;SDS011;40817;51.520;9.954;2023-06-26T00:12:00;6.15;;;5.50;;
11998;SDS011;40817;51.520;9.954;2023-06-26T00:14:28;8.57;;;6.68;;
11998;SDS011;40817;51.520;9.954;2023-06-26T00:16:55;7.03;;;5.90;;
11998;SDS011;40817;51.520;9.954;2023-06-26T00:19:25;9.60;;;6.07;;
11998;SDS011;40817;51.520;9.954;2023-06-26T00:21:52;8.63;;;6.07;;
11998;SDS011;40817;51.520;9.954;2023-06-26T00:24:20;7.40;;;6.18;;
11998;SDS011;40817;51.520;9.954;2023-06-26T00:26:48;9.45;;;6.07;;
11998;SDS011;40817;51.520;9.954;2023-06-26T00:29:16;8.25;;;6.45;;
11998;SDS011;40817;51.520;9.954;2023-06-26T00:31:43;9.27;;;6.00;;
11998;SDS011;40817;51.520;9.954;2023-06-26T00:34:11;8.90;;;6.03;;
11998;SDS011;40817;51.520;9.954;2023-06-26T00:36:41;9.07;;;5.80;;
11998;SDS011;40817;51.520;9.954;2023-06-26T00:39:09;9.48;;;5.97;;
11998;SDS011;40817;51.520;9.954;2023-06-26T00:41:38;9.35;;;5.97;;
11998;SDS011;40817;51.520;9.954;2023-06-26T00:44:06;9.25;;;5.90;;
11998;SDS011;40817;51.520;9.954;2023-06-26T00:46:34;6.22;;;5.57;;
11998;SDS011;40817;51.520;9.954;2023-06-26T00:49:02;7.78;;;6.28;;
11998;SDS011;40817;51.520;9.954;2023-06-26T00:51:31;24.55;;;7.55;;
11998;SDS011;40817;51.520;9.954;2023-06-26T00:54:00;8.25;;;5.93;;
11998;SDS011;40817;51.520;9.954;2023-06-26T00:56:29;7.55;;;6.30;;
11998;SDS011;40817;51.520;9.954;2023-06-26T00:58:58;8.27;;;6.00;;
11998;SDS011;40817;51.520;9.954;2023-06-26T01:01:26;8.18;;;5.80;;
11998;SDS011;40817;51.520;9.954;2023-06-26T01:03:54;9.82;;;5.70;;
11998;SDS011;40817;51.520;9.954;2023-06-26T01:06:23;7.70;;;5.07;;
11998;SDS011;40817;51.520;9.954;2023-06-26T01:08:52;7.40;;;5.20;;
11998;SDS011;40817;51.520;9.954;2023-06-26T01:11:21;7.22;;;6.03;;
11998;SDS011;40817;51.520;9.954;2023-06-26T01:13:49;6.35;;;5.47;;
11998;SDS011;40817;51.520;9.954;2023-06-26T01:16:19;6.93;;;5.55;;
11998;SDS011;40817;51.520;9.954;2023-06-26T01:18:50;7.97;;;6.00;;
11998;SDS011;40817;51.520;9.954;2023-06-26T01:21:18;7.30;;;5.78;;
11998;SDS011;40817;51.520;9.954;2023-06-26T01:23:49;10.65;;;6.15;;
11998;SDS011;40817;51.520;9.954;2023-06-26T01:26:32;8.73;;;6.18;;
11998;SDS011;40817;51.520;9.954;2023-06-26T01:29:02;10.52;;;6.07;;
11998;SDS011;40817;51.520;9.954;2023-06-26T01:31:33;8.55;;;5.60;;
11998;SDS011;40817;51.520;9.954;2023-06-26T01:34:02;7.20;;;5.78;;
11998;SDS011;40817;51.520;9.954;2023-06-26T01:36:30;9.50;;;5.78;;
11998;SDS011;40817;51.520;9.954;2023-06-26T01:38:58;7.65;;;5.68;;
11998;SDS011;40817;51.520;9.954;2023-06-26T01:41:26;9.75;;;6.32;;
11998;SDS011;40817;51.520;9.954;2023-06-26T01:46:55;7.63;;;5.82;;
11998;SDS011;40817;51.520;9.954;2023-06-26T01:49:33;7.20;;;5.63;;
11998;SDS011;40817;51.520;9.954;2023-06-26T01:52:16;9.50;;;5.90;;
11998;SDS011;40817;51.520;9.954;2023-06-26T01:54:56;9.50;;;5.43;;
11998;SDS011;40817;51.520;9.954;2023-06-26T01:57:32;12.25;;;6.28;;
11998;SDS011;40817;51.520;9.954;2023-06-26T02:00:04;10.45;;;5.85;;
11998;SDS011;40817;51.520;9.954;2023-06-26T02:02:35;8.15;;;5.07;;
11998;SDS011;40817;51.520;9.954;2023-06-26T02:05:03;9.70;;;5.68;;
11998;SDS011;40817;51.520;9.954;2023-06-26T02:07:31;8.82;;;5.53;;
11998;SDS011;40817;51.520;9.954;2023-06-26T02:09:58;7.40;;;5.75;;
11998;SDS011;40817;51.520;9.954;2023-06-26T02:12:26;8.35;;;5.70;;
11998;SDS011;40817;51.520;9.954;2023-06-26T02:14:53;8.52;;;5.75;;
11998;SDS011;40817;51.520;9.954;2023-06-26T02:17:23;7.22;;;5.93;;
11998;SDS011;40817;51.520;9.954;2023-06-26T02:19:50;14.32;;;6.25;;
11998;SDS011;40817;51.520;9.954;2023-06-26T02:22:18;9.30;;;5.93;;
11998;SDS011;40817;51.520;9.954;2023-06-26T02:24:45;6.88;;;5.03;;
11998;SDS011;40817;51.520;9.954;2023-06-26T02:27:13;7.60;;;5.60;;
11998;SDS011;40817;51.520;9.954;2023-06-26T02:29:41;6.75;;;5.32;;
11998;SDS011;40817;51.520;9.954;2023-06-26T02:32:09;7.07;;;5.30;;
11998;SDS011;40817;51.520;9.954;2023-06-26T02:34:38;11.88;;;5.60;;
11998;SDS011;40817;51.520;9.954;2023-06-26T02:37:05;7.47;;;5.70;;
11998;SDS011;40817;51.520;9.954;2023-06-26T02:39:33;7.95;;;6.05;;
11998;SDS011;40817;51.520;9.954;2023-06-26T02:42:01;10.25;;;5.72;;
11998;SDS011;40817;51.520;9.954;2023-06-26T02:44:28;8.38;;;5.25;;
11998;SDS011;40817;51.520;9.954;2023-06-26T02:46:56;6.88;;;5.70;;
11998;SDS011;40817;51.520;9.954;2023-06-26T02:49:23;6.90;;;5.20;;
11998;SDS011;40817;51.520;9.954;2023-06-26T02:51:52;8.27;;;5.32;;
11998;SDS011;40817;51.520;9.954;2023-06-26T02:54:20;7.50;;;5.28;;
11998;SDS011;40817;51.520;9.954;2023-06-26T02:56:48;11.32;;;5.72;;
11998;SDS011;40817;51.520;9.954;2023-06-26T02:59:15;9.80;;;6.45;;
11998;SDS011;40817;51.520;9.954;2023-06-26T03:01:43;7.93;;;5.13;;
11998;SDS011;40817;51.520;9.954;2023-06-26T03:04:30;8.50;;;5.35;;
11998;SDS011;40817;51.520;9.954;2023-06-26T03:07:22;8.00;;;5.45;;
11998;SDS011;40817;51.520;9.954;2023-06-26T03:10:10;9.52;;;5.50;;
11998;SDS011;40817;51.520;9.954;2023-06-26T03:12:39;7.43;;;5.72;;
11998;SDS011;40817;51.520;9.954;2023-06-26T03:15:07;7.18;;;5.80;;
11998;SDS011;40817;51.520;9.954;2023-06-26T03:17:37;7.88;;;5.57;;
11998;SDS011;40817;51.520;9.954;2023-06-26T03:20:05;9.15;;;5.95;;
11998;SDS011;40817;51.520;9.954;2023-06-26T03:22:36;9.80;;;6.20;;
11998;SDS011;40817;51.520;9.954;2023-06-26T03:25:04;7.35;;;5.55;;
11998;SDS011;40817;51.520;9.954;2023-06-26T03:27:33;10.05;;;5.85;;
11998;SDS011;40817;51.520;9.954;2023-06-26T03:30:00;8.55;;;6.38;;
11998;SDS011;40817;51.520;9.954;2023-06-26T03:32:27;9.10;;;6.13;;
11998;SDS011;40817;51.520;9.954;2023-06-26T03:34:55;8.80;;;6.63;;
11998;SDS011;40817;51.520;9.954;2023-06-26T03:37:22;9.30;;;6.05;;
11998;SDS011;40817;51.520;9.954;2023-06-26T03:39:51;9.23;;;6.03;;
11998;SDS011;40817;51.520;9.954;2023-06-26T03:42:19;8.43;;;6.13;;
11998;SDS011;40817;51.520;9.954;2023-06-26T03:44:46;9.45;;;6.47;;
11998;SDS011;40817;51.520;9.954;2023-06-26T03:47:14;8.48;;;6.90;;
11998;SDS011;40817;51.520;9.954;2023-06-26T03:49:42;8.15;;;6.28;;
11998;SDS011;40817;51.520;9.954;2023-06-26T03:52:09;8.80;;;6.03;;
11998;SDS011;40817;51.520;9.954;2023-06-26T03:54:36;10.38;;;6.15;;
11998;SDS011;40817;51.520;9.954;2023-06-26T03:57:05;7.25;;;5.82;;
11998;SDS011;40817;51.520;9.954;2023-06-26T03:59:33;9.07;;;5.68;;
11998;SDS011;40817;51.520;9.954;2023-06-26T04:02:00;13.15;;;6.25;;
11998;SDS011;40817;51.520;9.954;2023-06-26T04:04:28;9.27;;;6.50;;
11998;SDS011;40817;51.520;9.954;2023-06-26T04:06:56;8.13;;;5.88;;
11998;SDS011;40817;51.520;9.954;2023-06-26T04:09:24;8.35;;;5.72;;
11998;SDS011;40817;51.520;9.954;2023-06-26T04:11:52;9.23;;;6.18;;
11998;SDS011;40817;51.520;9.954;2023-06-26T04:14:20;8.50;;;5.72;;
11998;SDS011;40817;51.520;9.954;2023-06-26T04:16:48;8.85;;;5.88;;
11998;SDS011;40817;51.520;9.954;2023-06-26T04:19:15;8.45;;;5.95;;
11998;SDS011;40817;51.520;9.954;2023-06-26T04:21:43;9.20;;;6.47;;
11998;SDS011;40817;51.520;9.954;2023-06-26T04:24:10;9.93;;;6.28;;
11998;SDS011;40817;51.520;9.954;2023-06-26T04:26:38;9.02;;;4.88;;
11998;SDS011;40817;51.520;9.954;2023-06-26T04:29:06;8.18;;;5.75;;
11998;SDS011;40817;51.520;9.954;2023-06-26T04:31:35;7.40;;;5.47;;
11998;SDS011;40817;51.520;9.954;2023-06-26T04:34:03;7.95;;;5.97;;
11998;SDS011;40817;51.520;9.954;2023-06-26T04:36:31;11.98;;;6.05;;
11998;SDS011;40817;51.520;9.954;2023-06-26T04:38:58;6.55;;;5.57;;
11998;SDS011;40817;51.520;9.954;2023-06-26T04:41:26;7.47;;;5.80;;
11998;SDS011;40817;51.520;9.954;2023-06-26T04:43:54;7.50;;;5.55;;
11998;SDS011;40817;51.520;9.954;2023-06-26T04:46:21;7.38;;;5.47;;
11998;SDS011;40817;51.520;9.954;2023-06-26T04:48:50;5.90;;;5.10;;
11998;SDS011;40817;51.520;9.954;2023-06-26T04:51:17;7.03;;;5.10;;
11998;SDS011;40817;51.520;9.954;2023-06-26T04:53:46;8.80;;;5.57;;
11998;SDS011;40817;51.520;9.954;2023-06-26T04:56:13;8.95;;;5.80;;
11998;SDS011;40817;51.520;9.954;2023-06-26T04:58:41;6.38;;;5.47;;
11998;SDS011;40817;51.520;9.954;2023-06-26T05:01:09;6.80;;;5.65;;
11998;SDS011;40817;51.520;9.954;2023-06-26T05:03:38;7.13;;;5.63;;
11998;SDS011;40817;51.520;9.954;2023-06-26T05:06:07;8.45;;;5.75;;
11998;SDS011;40817;51.520;9.954;2023-06-26T05:08:35;8.38;;;5.68;;
11998;SDS011;40817;51.520;9.954;2023-06-26T05:11:02;8.52;;;5.55;;
11998;SDS011;40817;51.520;9.954;2023-06-26T05:13:30;7.45;;;5.32;;
11998;SDS011;40817;51.520;9.954;2023-06-26T05:15:57;8.50;;;5.30;;
11998;SDS011;40817;51.520;9.954;2023-06-26T05:18:25;7.88;;;5.20;;
11998;SDS011;40817;51.520;9.954;2023-06-26T05:20:52;8.80;;;5.07;;
11998;SDS011;40817;51.520;9.954;2023-06-26T05:23:22;10.23;;;5.63;;
11998;SDS011;40817;51.520;9.954;2023-06-26T05:25:52;9.60;;;5.72;;
11998;SDS011;40817;51.520;9.954;2023-06-26T05:28:21;10.05;;;5.40;;
11998;SDS011;40817;51.520;9.954;2023-06-26T05:30:50;8.70;;;5.18;;
11998;SDS011;40817;51.520;9.954;2023-06-26T05:33:18;6.22;;;4.57;;
11998;SDS011;40817;51.520;9.954;2023-06-26T05:35:48;8.63;;;5.43;;
11998;SDS011;40817;51.520;9.954;2023-06-26T05:38:18;5.85;;;4.45;;
11998;SDS011;40817;51.520;9.954;2023-06-26T05:40:48;6.95;;;5.30;;
11998;SDS011;40817;51.520;9.954;2023-06-26T05:43:17;7.28;;;5.10;;
11998;SDS011;40817;51.520;9.954;2023-06-26T05:45:46;7.22;;;4.93;;
11998;SDS011;40817;51.520;9.954;2023-06-26T05:48:14;7.43;;;5.05;;
11998;SDS011;40817;51.520;9.954;2023-06-26T05:50:43;7.20;;;5.35;;
11998;SDS011;40817;51.520;9.954;2023-06-26T05:53:11;6.78;;;5.00;;
11998;SDS011;40817;51.520;9.954;2023-06-26T05:55:40;9.45;;;5.63;;
11998;SDS011;40817;51.520;9.954;2023-06-26T05:58:11;6.35;;;4.68;;
11998;SDS011;40817;51.520;9.954;2023-06-26T06:00:39;6.47;;;4.97;;
11998;SDS011;40817;51.520;9.954;2023-06-26T06:03:09;5.95;;;5.10;;
11998;SDS011;40817;51.520;9.954;2023-06-26T06:05:37;7.07;;;5.13;;
11998;SDS011;40817;51.520;9.954;2023-06-26T06:08:04;7.15;;;5.03;;
11998;SDS011;40817;51.520;9.954;2023-06-26T06:10:32;7.20;;;4.78;;
11998;SDS011;40817;51.520;9.954;2023-06-26T06:12:59;6.47;;;4.95;;
11998;SDS011;40817;51.520;9.954;2023-06-26T06:15:28;7.13;;;5.10;;
11998;SDS011;40817;51.520;9.954;2023-06-26T06:17:56;7.53;;;4.78;;
11998;SDS011;40817;51.520;9.954;2023-06-26T06:20:24;8.60;;;4.90;;
11998;SDS011;40817;51.520;9.954;2023-06-26T06:22:52;6.22;;;4.63;;
11998;SDS011;40817;51.520;9.954;2023-06-26T06:25:19;7.00;;;5.07;;
11998;SDS011;40817;51.520;9.954;2023-06-26T06:27:47;7.68;;;4.93;;
11998;SDS011;40817;51.520;9.954;2023-06-26T06:30:14;7.88;;;5.30;;
11998;SDS011;40817;51.520;9.954;2023-06-26T06:32:43;7.90;;;5.30;;
11998;SDS011;40817;51.520;9.954;2023-06-26T06:35:15;7.32;;;4.90;;
11998;SDS011;40817;51.520;9.954;2023-06-26T06:37:43;6.63;;;5.35;;
11998;SDS011;40817;51.520;9.954;2023-06-26T06:40:11;7.13;;;5.20;;
11998;SDS011;40817;51.520;9.954;2023-06-26T06:42:49;7.85;;;4.93;;
11998;SDS011;40817;51.520;9.954;2023-06-26T06:45:17;6.32;;;4.85;;
11998;SDS011;40817;51.520;9.954;2023-06-26T06:47:46;6.47;;;5.15;;
11998;SDS011;40817;51.520;9.954;2023-06-26T06:50:14;5.78;;;4.85;;
11998;SDS011;40817;51.520;9.954;2023-06-26T06:52:43;7.03;;;5.15;;
11998;SDS011;40817;51.520;9.954;2023-06-26T06:55:11;6.13;;;5.20;;
11998;SDS011;40817;51.520;9.954;2023-06-26T06:57:39;6.88;;;4.80;;
11998;SDS011;40817;51.520;9.954;2023-06-26T07:00:07;10.35;;;4.97;;
11998;SDS011;40817;51.520;9.954;2023-06-26T07:02:40;8.18;;;5.10;;
11998;SDS011;40817;51.520;9.954;2023-06-26T07:05:11;5.70;;;4.50;;
11998;SDS011;40817;51.520;9.954;2023-06-26T07:07:39;8.07;;;4.95;;
11998;SDS011;40817;51.520;9.954;2023-06-26T07:10:07;7.43;;;4.88;;
11998;SDS011;40817;51.520;9.954;2023-06-26T07:12:38;6.53;;;4.90;;
11998;SDS011;40817;51.520;9.954;2023-06-26T07:15:06;6.25;;;4.82;;
11998;SDS011;40817;51.520;9.954;2023-06-26T07:17:34;7.65;;;5.50;;
11998;SDS011;40817;51.520;9.954;2023-06-26T07:20:03;6.38;;;5.20;;
11998;SDS011;40817;51.520;9.954;2023-06-26T07:22:35;7.28;;;5.10;;
11998;SDS011;40817;51.520;9.954;2023-06-26T07:25:03;7.25;;;4.97;;
11998;SDS011;40817;51.520;9.954;2023-06-26T07:27:34;5.80;;;4.72;;
11998;SDS011;40817;51.520;9.954;2023-06-26T07:30:02;6.25;;;5.03;;
11998;SDS011;40817;51.520;9.954;2023-06-26T07:32:30;6.75;;;4.50;;
11998;SDS011;40817;51.520;9.954;2023-06-26T07:34:58;7.47;;;5.28;;
11998;SDS011;40817;51.520;9.954;2023-06-26T07:37:25;5.95;;;5.00;;
11998;SDS011;40817;51.520;9.954;2023-06-26T07:39:55;8.25;;;4.93;;
11998;SDS011;40817;51.520;9.954;2023-06-26T07:42:23;5.80;;;4.95;;
11998;SDS011;40817;51.520;9.954;2023-06-26T07:44:50;6.07;;;4.90;;
11998;SDS011;40817;51.520;9.954;2023-06-26T07:47:18;5.97;;;5.03;;
11998;SDS011;40817;51.520;9.954;2023-06-26T07:49:45;7.20;;;4.97;;
11998;SDS011;40817;51.520;9.954;2023-06-26T07:52:13;7.65;;;4.85;;
11998;SDS011;40817;51.520;9.954;2023-06-26T07:54:41;6.68;;;5.20;;
11998;SDS011;40817;51.520;9.954;2023-06-26T07:57:10;5.63;;;4.75;;
11998;SDS011;40817;51.520;9.954;2023-06-26T07:59:41;7.88;;;4.85;;
11998;SDS011;40817;51.520;9.954;2023-06-26T08:02:09;7.53;;;4.97;;
11998;SDS011;40817;51.520;9.954;2023-06-26T08:04:37;6.00;;;4.57;;
11998;SDS011;40817;51.520;9.954;2023-06-26T08:07:05;7.28;;;5.35;;
11998;SDS011;40817;51.520;9.954;2023-06-26T08:09:33;5.78;;;4.88;;
11998;SDS011;40817;51.520;9.954;2023-06-26T08:12:00;6.70;;;5.18;;
11998;SDS011;40817;51.520;9.954;2023-06-26T08:14:31;6.30;;;4.57;;
11998;SDS011;40817;51.520;9.954;2023-06-26T08:16:59;5.70;;;4.72;;
11998;SDS011;40817;51.520;9.954;2023-06-26T08:19:27;8.23;;;4.88;;
11998;SDS011;40817;51.520;9.954;2023-06-26T08:21:54;5.57;;;4.50;;
11998;SDS011;40817;51.520;9.954;2023-06-26T08:24:22;5.68;;;4.85;;
11998;SDS011;40817;51.520;9.954;2023-06-26T08:26:49;7.35;;;5.43;;
11998;SDS011;40817;51.520;9.954;2023-06-26T08:29:17;6.68;;;4.95;;
11998;SDS011;40817;51.520;9.954;2023-06-26T08:31:46;6.00;;;5.35;;
11998;SDS011;40817;51.520;9.954;2023-06-26T08:34:14;7.25;;;4.93;;
11998;SDS011;40817;51.520;9.954;2023-06-26T08:36:41;6.38;;;5.22;;
11998;SDS011;40817;51.520;9.954;2023-06-26T08:39:10;6.45;;;5.03;;
11998;SDS011;40817;51.520;9.954;2023-06-26T08:41:37;7.78;;;5.15;;
11998;SDS011;40817;51.520;9.954;2023-06-26T08:44:06;7.95;;;4.47;;
11998;SDS011;40817;51.520;9.954;2023-06-26T08:46:33;5.85;;;4.38;;
11998;SDS011;40817;51.520;9.954;2023-06-26T08:49:05;9.75;;;5.05;;
11998;SDS011;40817;51.520;9.954;2023-06-26T08:51:41;6.35;;;4.68;;
11998;SDS011;40817;51.520;9.954;2023-06-26T08:54:18;6.40;;;5.07;;
11998;SDS011;40817;51.520;9.954;2023-06-26T08:59:22;7.63;;;4.63;;
11998;SDS011;40817;51.520;9.954;2023-06-26T09:01:51;5.22;;;4.53;;
11998;SDS011;40817;51.520;9.954;2023-06-26T09:04:20;7.38;;;4.72;;
11998;SDS011;40817;51.520;9.954;2023-06-26T09:06:48;6.10;;;5.03;;
11998;SDS011;40817;51.520;9.954;2023-06-26T09:09:16;6.95;;;4.60;;
11998;SDS011;40817;51.520;9.954;2023-06-26T09:11:43;9.60;;;5.28;;
11998;SDS011;40817;51.520;9.954;2023-06-26T09:14:11;5.80;;;4.85;;
11998;SDS011;40817;51.520;9.954;2023-06-26T09:16:40;6.95;;;4.85;;
11998;SDS011;40817;51.520;9.954;2023-06-26T09:19:09;7.72;;;4.60;;
11998;SDS011;40817;51.520;9.954;2023-06-26T09:21:40;6.63;;;4.70;;
11998;SDS011;40817;51.520;9.954;2023-06-26T09:24:08;5.95;;;5.15;;
11998;SDS011;40817;51.520;9.954;2023-06-26T09:26:37;5.55;;;4.57;;
11998;SDS011;40817;51.520;9.954;2023-06-26T09:29:06;5.78;;;4.95;;
11998;SDS011;40817;51.520;9.954;2023-06-26T09:31:35;5.95;;;4.72;;
11998;SDS011;40817;51.520;9.954;2023-06-26T09:34:04;5.55;;;4.32;;
11998;SDS011;40817;51.520;9.954;2023-06-26T09:36:32;6.32;;;4.72;;
11998;SDS011;40817;51.520;9.954;2023-06-26T09:39:03;8.02;;;4.72;;
11998;SDS011;40817;51.520;9.954;2023-06-26T09:41:36;6.75;;;5.32;;
11998;SDS011;40817;51.520;9.954;2023-06-26T09:44:05;5.97;;;4.82;;
11998;SDS011;40817;51.520;9.954;2023-06-26T09:46:34;7.47;;;4.90;;
11998;SDS011;40817;51.520;9.954;2023-06-26T09:49:03;10.02;;;5.38;;
11998;SDS011;40817;51.520;9.954;2023-06-26T09:51:33;5.97;;;4.80;;
11998;SDS011;40817;51.520;9.954;2023-06-26T09:54:05;7.50;;;5.30;;
11998;SDS011;40817;51.520;9.954;2023-06-26T09:56:33;6.75;;;5.53;;
11998;SDS011;40817;51.520;9.954;2023-06-26T09:59:02;6.03;;;5.30;;
11998;SDS011;40817;51.520;9.954;2023-06-26T10:01:31;6.38;;;5.53;;
11998;SDS011;40817;51.520;9.954;2023-06-26T10:04:00;6.78;;;5.13;;
11998;SDS011;40817;51.520;9.954;2023-06-26T10:06:28;6.20;;;5.30;;
11998;SDS011;40817;51.520;9.954;2023-06-26T10:09:00;8.43;;;5.57;;
11998;SDS011;40817;51.520;9.954;2023-06-26T10:11:32;6.40;;;5.03;;
11998;SDS011;40817;51.520;9.954;2023-06-26T10:14:07;7.88;;;5.43;;
11998;SDS011;40817;51.520;9.954;2023-06-26T10:16:37;7.43;;;5.50;;
11998;SDS011;40817;51.520;9.954;2023-06-26T10:19:10;7.38;;;5.50;;
11998;SDS011;40817;51.520;9.954;2023-06-26T10:21:39;6.18;;;5.57;;
11998;SDS011;40817;51.520;9.954;2023-06-26T10:24:09;8.80;;;5.53;;
11998;SDS011;40817;51.520;9.954;2023-06-26T10:26:40;6.63;;;5.20;;
11998;SDS011;40817;51.520;9.954;2023-06-26T10:29:12;7.93;;;5.35;;
11998;SDS011;40817;51.520;9.954;2023-06-26T10:31:44;8.40;;;6.13;;
11998;SDS011;40817;51.520;9.954;2023-06-26T10:34:22;7.05;;;5.45;;
11998;SDS011;40817;51.520;9.954;2023-06-26T10:36:58;8.57;;;5.00;;
11998;SDS011;40817;51.520;9.954;2023-06-26T10:42:12;7.80;;;5.30;;
11998;SDS011;40817;51.520;9.954;2023-06-26T10:44:40;7.63;;;5.10;;
11998;SDS011;40817;51.520;9.954;2023-06-26T10:47:09;7.30;;;4.70;;
11998;SDS011;40817;51.520;9.954;2023-06-26T10:49:38;7.53;;;5.65;;
11998;SDS011;40817;51.520;9.954;2023-06-26T10:52:13;14.88;;;5.65;;
11998;SDS011;40817;51.520;9.954;2023-06-26T10:54:42;7.45;;;5.35;;
11998;SDS011;40817;51.520;9.954;2023-06-26T10:57:10;7.90;;;5.68;;
11998;SDS011;40817;51.520;9.954;2023-06-26T10:59:39;9.73;;;4.93;;
11998;SDS011;40817;51.520;9.954;2023-06-26T11:02:07;7.88;;;5.50;;
11998;SDS011;40817;51.520;9.954;2023-06-26T11:04:37;7.53;;;5.40;;
11998;SDS011;40817;51.520;9.954;2023-06-26T11:07:17;8.05;;;5.07;;
11998;SDS011;40817;51.520;9.954;2023-06-26T11:09:56;9.18;;;5.35;;
11998;SDS011;40817;51.520;9.954;2023-06-26T11:12:35;8.82;;;5.10;;
11998;SDS011;40817;51.520;9.954;2023-06-26T11:15:09;9.77;;;5.53;;
11998;SDS011;40817;51.520;9.954;2023-06-26T11:17:39;6.80;;;5.03;;
11998;SDS011;40817;51.520;9.954;2023-06-26T11:20:09;8.90;;;5.35;;
11998;SDS011;40817;51.520;9.954;2023-06-26T11:22:39;8.25;;;5.55;;
11998;SDS011;40817;51.520;9.954;2023-06-26T11:25:10;10.68;;;6.93;;
11998;SDS011;40817;51.520;9.954;2023-06-26T11:27:38;13.88;;;7.78;;
11998;SDS011;40817;51.520;9.954;2023-06-26T11:30:07;11.40;;;8.02;;
11998;SDS011;40817;51.520;9.954;2023-06-26T11:32:37;11.82;;;8.48;;
11998;SDS011;40817;51.520;9.954;2023-06-26T11:35:05;14.45;;;8.55;;
11998;SDS011;40817;51.520;9.954;2023-06-26T11:37:35;13.40;;;9.15;;
11998;SDS011;40817;51.520;9.954;2023-06-26T11:40:17;13.65;;;9.60;;
11998;SDS011;40817;51.520;9.954;2023-06-26T11:42:45;19.23;;;11.60;;
11998;SDS011;40817;51.520;9.954;2023-06-26T11:45:13;13.23;;;7.50;;
11998;SDS011;40817;51.520;9.954;2023-06-26T11:47:41;13.23;;;10.60;;
11998;SDS011;40817;51.520;9.954;2023-06-26T11:50:14;14.43;;;9.27;;
11998;SDS011;40817;51.520;9.954;2023-06-26T11:52:42;17.25;;;11.63;;
11998;SDS011;40817;51.520;9.954;2023-06-26T11:55:11;15.73;;;10.88;;
11998;SDS011;40817;51.520;9.954;2023-06-26T11:57:40;13.93;;;10.13;;
11998;SDS011;40817;51.520;9.954;2023-06-26T12:00:11;16.73;;;11.73;;
11998;SDS011;40817;51.520;9.954;2023-06-26T12:02:40;14.27;;;11.77;;
11998;SDS011;40817;51.520;9.954;2023-06-26T12:05:07;16.75;;;10.00;;
11998;SDS011;40817;51.520;9.954;2023-06-26T12:07:36;12.55;;;9.73;;
11998;SDS011;40817;51.520;9.954;2023-06-26T12:10:04;12.95;;;10.68;;
11998;SDS011;40817;51.520;9.954;2023-06-26T12:12:33;12.88;;;10.30;;
11998;SDS011;40817;51.520;9.954;2023-06-26T12:15:03;11.82;;;10.27;;
11998;SDS011;40817;51.520;9.954;2023-06-26T12:17:33;14.32;;;10.18;;
11998;SDS011;40817;51.520;9.954;2023-06-26T12:20:16;16.17;;;9.73;;
11998;SDS011;40817;51.520;9.954;2023-06-26T12:22:46;12.23;;;9.93;;
11998;SDS011;40817;51.520;9.954;2023-06-26T12:25:15;15.25;;;10.98;;
11998;SDS011;40817;51.520;9.954;2023-06-26T12:27:47;14.32;;;9.77;;
11998;SDS011;40817;51.520;9.954;2023-06-26T12:30:17;13.50;;;11.00;;
11998;SDS011;40817;51.520;9.954;2023-06-26T12:32:45;13.93;;;10.35;;
11998;SDS011;40817;51.520;9.954;2023-06-26T12:35:13;14.73;;;10.63;;
11998;SDS011;40817;51.520;9.954;2023-06-26T12:37:41;11.25;;;10.00;;
11998;SDS011;40817;51.520;9.954;2023-06-26T12:40:17;14.02;;;9.88;;
11998;SDS011;40817;51.520;9.954;2023-06-26T12:45:16;12.70;;;8.00;;
11998;SDS011;40817;51.520;9.954;2023-06-26T12:47:45;11.35;;;6.60;;
11998;SDS011;40817;51.520;9.954;2023-06-26T12:50:14;8.68;;;6.30;;
11998;SDS011;40817;51.520;9.954;2023-06-26T12:52:42;11.35;;;5.88;;
11998;SDS011;40817;51.520;9.954;2023-06-26T12:55:10;11.23;;;6.97;;
11998;SDS011;40817;51.520;9.954;2023-06-26T12:57:42;10.02;;;6.22;;
11998;SDS011;40817;51.520;9.954;2023-06-26T13:00:10;10.48;;;7.22;;
11998;SDS011;40817;51.520;9.954;2023-06-26T13:02:41;9.88;;;6.10;;
11998;SDS011;40817;51.520;9.954;2023-06-26T13:05:10;10.40;;;6.15;;
11998;SDS011;40817;51.520;9.954;2023-06-26T13:07:37;11.32;;;5.40;;
11998;SDS011;40817;51.520;9.954;2023-06-26T13:10:05;11.60;;;6.75;;
11998;SDS011;40817;51.520;9.954;2023-06-26T13:12:34;7.82;;;6.30;;
11998;SDS011;40817;51.520;9.954;2023-06-26T13:15:02;10.32;;;7.13;;
11998;SDS011;40817;51.520;9.954;2023-06-26T13:17:31;12.18;;;6.60;;
11998;SDS011;40817;51.520;9.954;2023-06-26T13:20:00;8.85;;;6.63;;
11998;SDS011;40817;51.520;9.954;2023-06-26T13:22:29;10.00;;;6.90;;
11998;SDS011;40817;51.520;9.954;2023-06-26T13:24:56;8.80;;;6.40;;
11998;SDS011;40817;51.520;9.954;2023-06-26T13:27:24;9.05;;;6.10;;
11998;SDS011;40817;51.520;9.954;2023-06-26T13:29:51;9.65;;;6.97;;
11998;SDS011;40817;51.520;9.954;2023-06-26T13:32:19;7.75;;;5.80;;
11998;SDS011;40817;51.520;9.954;2023-06-26T13:34:47;8.07;;;5.68;;
11998;SDS011;40817;51.520;9.954;2023-06-26T13:37:16;14.75;;;6.47;;
11998;SDS011;40817;51.520;9.954;2023-06-26T13:39:43;10.10;;;6.10;;
11998;SDS011;40817;51.520;9.954;2023-06-26T13:42:15;11.07;;;6.28;;
11998;SDS011;40817;51.520;9.954;2023-06-26T13:44:42;8.50;;;5.60;;
11998;SDS011;40817;51.520;9.954;2023-06-26T13:47:12;8.73;;;5.85;;
11998;SDS011;40817;51.520;9.954;2023-06-26T13:49:40;10.38;;;5.72;;
11998;SDS011;40817;51.520;9.954;2023-06-26T13:52:08;7.45;;;5.43;;
11998;SDS011;40817;51.520;9.954;2023-06-26T13:54:37;9.93;;;5.72;;
11998;SDS011;40817;51.520;9.954;2023-06-26T13:57:05;12.75;;;6.55;;
11998;SDS011;40817;51.520;9.954;2023-06-26T13:59:37;8.35;;;5.20;;
11998;SDS011;40817;51.520;9.954;2023-06-26T14:02:05;10.45;;;5.90;;
11998;SDS011;40817;51.520;9.954;2023-06-26T14:04:34;7.60;;;5.45;;
11998;SDS011;40817;51.520;9.954;2023-06-26T14:07:02;7.45;;;5.63;;
11998;SDS011;40817;51.520;9.954;2023-06-26T14:09:32;9.10;;;5.65;;
11998;SDS011;40817;51.520;9.954;2023-06-26T14:12:01;9.30;;;5.10;;
11998;SDS011;40817;51.520;9.954;2023-06-26T14:14:30;8.90;;;4.90;;
11998;SDS011;40817;51.520;9.954;2023-06-26T14:16:58;8.65;;;5.10;;
11998;SDS011;40817;51.520;9.954;2023-06-26T14:19:25;10.45;;;4.93;;
11998;SDS011;40817;51.520;9.954;2023-06-26T14:21:53;8.82;;;4.93;;
11998;SDS011;40817;51.520;9.954;2023-06-26T14:24:21;7.72;;;4.32;;
11998;SDS011;40817;51.520;9.954;2023-06-26T14:26:48;7.47;;;4.15;;
11998;SDS011;40817;51.520;9.954;2023-06-26T14:29:17;8.05;;;4.53;;
11998;SDS011;40817;51.520;9.954;2023-06-26T14:31:46;6.32;;;4.00;;
11998;SDS011;40817;51.520;9.954;2023-06-26T14:34:14;12.20;;;4.45;;
11998;SDS011;40817;51.520;9.954;2023-06-26T14:36:42;7.07;;;3.50;;
11998;SDS011;40817;51.520;9.954;2023-06-26T14:39:09;7.90;;;3.70;;
11998;SDS011;40817;51.520;9.954;2023-06-26T14:41:38;6.43;;;3.50;;
11998;SDS011;40817;51.520;9.954;2023-06-26T14:44:05;10.38;;;3.72;;
11998;SDS011;40817;51.520;9.954;2023-06-26T14:46:36;6.40;;;3.45;;
11998;SDS011;40817;51.520;9.954;2023-06-26T14:49:04;5.55;;;3.30;;
11998;SDS011;40817;51.520;9.954;2023-06-26T14:51:31;5.75;;;3.67;;
11998;SDS011;40817;51.520;9.954;2023-06-26T14:53:59;4.82;;;2.97;;
11998;SDS011;40817;51.520;9.954;2023-06-26T14:56:27;9.02;;;3.22;;
11998;SDS011;40817;51.520;9.954;2023-06-26T14:58:55;5.05;;;2.92;;
11998;SDS011;40817;51.520;9.954;2023-06-26T15:01:22;5.00;;;2.80;;
11998;SDS011;40817;51.520;9.954;2023-06-26T15:03:51;7.00;;;2.70;;
11998;SDS011;40817;51.520;9.954;2023-06-26T15:06:19;4.63;;;2.33;;
11998;SDS011;40817;51.520;9.954;2023-06-26T15:08:47;4.57;;;2.72;;